Time;durP1;ratioP1;P1;durP2;ratioP2;P2;SDS_P1;SDS_P2;PMS_P1;PMS_P2;Temp;Humidity;BMP_temperature;BMP_pressure;BME280_temperature;BME280_humidity;BME280_pressure;Samples;Min_cycle;Max_cycle;Signal;HPM_P1;HPM_P2
2023/10/31 00:02:00;;;;;;;0.60;0.60;;;11.00;99.90;;;;;;5015711;28;20198;-66
2023/10/31 00:04:26;;;;;;;1.67;0.87;;;11.00;99.90;;;;;;5015054;28;20172;-66
2023/10/31 00:06:51;;;;;;;1.60;0.90;;;11.00;99.90;;;;;;5015354;28;20417;-66
2023/10/31 00:09:17;;;;;;;1.60;1.10;;;11.00;99.90;;;;;;5015147;28;20594;-66
2023/10/31 00:11:44;;;;;;;1.20;1.10;;;11.00;99.90;;;;;;5015228;28;20167;-66
2023/10/31 00:14:09;;;;;;;1.43;1.07;;;11.00;99.90;;;;;;5014963;28;20426;-66
2023/10/31 00:16:35;;;;;;;1.90;1.80;;;11.00;99.90;;;;;;5015085;28;20548;-67
2023/10/31 00:19:00;;;;;;;1.43;1.07;;;10.90;99.90;;;;;;5015079;28;20273;-66
2023/10/31 00:21:26;;;;;;;1.03;0.93;;;10.90;99.90;;;;;;5015144;28;20167;-66
2023/10/31 00:23:51;;;;;;;1.20;1.10;;;10.90;99.90;;;;;;5014746;28;20171;-66
2023/10/31 00:26:17;;;;;;;1.33;0.50;;;10.90;99.90;;;;;;5014928;28;20181;-66
2023/10/31 00:28:42;;;;;;;1.20;0.97;;;10.90;99.90;;;;;;5013975;28;20206;-67
2023/10/31 00:31:08;;;;;;;0.80;0.80;;;10.90;99.90;;;;;;5014774;28;20593;-66
2023/10/31 00:33:37;;;;;;;0.70;0.60;;;10.90;99.90;;;;;;5014499;28;20163;-67
2023/10/31 00:36:03;;;;;;;0.80;0.80;;;10.90;99.90;;;;;;5014708;28;20167;-67
2023/10/31 00:38:28;;;;;;;0.80;0.67;;;10.90;99.90;;;;;;5014509;28;20476;-66
2023/10/31 00:40:54;;;;;;;2.07;0.73;;;10.90;99.90;;;;;;5014595;28;20496;-67
2023/10/31 00:43:20;;;;;;;0.60;0.60;;;10.90;99.90;;;;;;5014476;28;20270;-66
2023/10/31 00:45:45;;;;;;;0.97;0.60;;;10.90;99.90;;;;;;5014571;28;20605;-67
2023/10/31 00:48:11;;;;;;;1.20;0.70;;;10.90;99.90;;;;;;5013248;28;20665;-66
2023/10/31 00:50:36;;;;;;;0.80;0.70;;;10.90;99.90;;;;;;5014519;28;20182;-67
2023/10/31 00:53:02;;;;;;;0.77;0.60;;;10.90;99.90;;;;;;5014132;28;20175;-67
2023/10/31 00:55:27;;;;;;;0.97;0.70;;;10.90;99.90;;;;;;5014287;28;20174;-66
2023/10/31 00:57:53;;;;;;;1.80;0.77;;;10.90;99.90;;;;;;5014230;28;20207;-66
2023/10/31 01:00:18;;;;;;;1.13;0.80;;;10.90;99.90;;;;;;5014268;28;20175;-66
2023/10/31 01:02:44;;;;;;;0.90;0.80;;;10.90;99.90;;;;;;5013937;28;20175;-66
2023/10/31 01:05:11;;;;;;;0.60;0.60;;;10.80;99.90;;;;;;5014174;28;20230;-66
2023/10/31 01:07:36;;;;;;;0.73;0.60;;;10.70;99.90;;;;;;5014079;28;20293;-66
2023/10/31 01:10:03;;;;;;;0.70;0.70;;;10.60;99.90;;;;;;5014031;28;20508;-66
2023/10/31 01:12:28;;;;;;;0.80;0.80;;;10.60;99.90;;;;;;5014009;28;20305;-66
2023/10/31 01:14:54;;;;;;;2.03;1.00;;;10.50;99.90;;;;;;5013735;28;20943;-66
2023/10/31 01:17:21;;;;;;;0.90;0.60;;;10.40;99.90;;;;;;5013904;28;20209;-66
2023/10/31 01:19:46;;;;;;;1.37;0.67;;;10.40;99.90;;;;;;5013889;28;20417;-66
2023/10/31 01:22:12;;;;;;;1.67;0.70;;;10.30;99.90;;;;;;5013773;28;20504;-66
2023/10/31 01:24:37;;;;;;;0.80;0.80;;;10.30;99.90;;;;;;5013590;28;20175;-66
2023/10/31 01:27:03;;;;;;;1.57;0.87;;;10.20;99.90;;;;;;5013592;28;20179;-66
2023/10/31 01:29:29;;;;;;;1.47;1.27;;;10.10;99.90;;;;;;5013796;28;20183;-66
2023/10/31 01:31:54;;;;;;;1.13;1.07;;;10.10;99.90;;;;;;5013722;28;20187;-66
2023/10/31 01:34:20;;;;;;;1.40;0.90;;;10.00;99.90;;;;;;5013517;28;20198;-66
2023/10/31 01:36:45;;;;;;;2.10;0.80;;;10.00;99.90;;;;;;5013591;28;20585;-66
2023/10/31 01:39:11;;;;;;;0.80;0.70;;;10.00;99.90;;;;;;5013429;28;20195;-66
2023/10/31 01:41:36;;;;;;;0.97;0.80;;;10.00;99.90;;;;;;5013759;28;20171;-66
2023/10/31 01:44:02;;;;;;;4.50;0.83;;;10.00;99.90;;;;;;5013214;28;20182;-66
2023/10/31 01:46:27;;;;;;;0.90;0.70;;;10.00;99.90;;;;;;5013475;28;20237;-66
2023/10/31 01:48:53;;;;;;;1.57;0.77;;;10.00;99.90;;;;;;5013292;28;20203;-66
2023/10/31 01:51:19;;;;;;;1.27;1.17;;;10.00;99.90;;;;;;5013246;28;20179;-66
2023/10/31 01:53:44;;;;;;;1.30;0.70;;;10.00;99.90;;;;;;5013049;28;20174;-66
2023/10/31 01:56:10;;;;;;;1.63;0.80;;;10.00;99.90;;;;;;5013348;28;20223;-66
2023/10/31 01:58:37;;;;;;;0.93;0.80;;;10.10;99.90;;;;;;5013185;28;20199;-66
2023/10/31 02:01:04;;;;;;;0.90;0.80;;;10.10;99.90;;;;;;5013198;28;20193;-66
2023/10/31 02:03:30;;;;;;;1.40;1.00;;;10.10;99.90;;;;;;5012921;28;20436;-66
2023/10/31 02:05:57;;;;;;;0.73;0.73;;;10.10;99.90;;;;;;5013004;28;20432;-66
2023/10/31 02:08:24;;;;;;;1.57;0.93;;;10.10;99.90;;;;;;5012958;28;20448;-66
2023/10/31 02:10:49;;;;;;;0.73;0.73;;;10.10;99.90;;;;;;5013161;28;20792;-66
2023/10/31 02:13:16;;;;;;;1.50;0.70;;;10.00;99.90;;;;;;5012698;28;20421;-66
2023/10/31 02:15:42;;;;;;;0.73;0.70;;;10.00;99.90;;;;;;5012927;28;20221;-66
2023/10/31 02:18:08;;;;;;;1.37;0.90;;;10.10;99.90;;;;;;5012741;28;20473;-66
2023/10/31 02:20:34;;;;;;;1.00;0.80;;;10.10;99.90;;;;;;5012833;28;20536;-66
2023/10/31 02:23:00;;;;;;;1.83;0.97;;;10.00;99.90;;;;;;5012472;28;20432;-66
2023/10/31 02:25:26;;;;;;;0.87;0.83;;;10.00;99.90;;;;;;5012764;28;20923;-66
2023/10/31 02:27:51;;;;;;;1.60;0.80;;;10.00;99.90;;;;;;5012758;28;20275;-66
2023/10/31 02:30:17;;;;;;;4.43;1.40;;;10.00;99.90;;;;;;5012766;28;20237;-66
2023/10/31 02:32:43;;;;;;;4.13;1.53;;;10.00;99.90;;;;;;5012388;28;20171;-66
2023/10/31 02:35:09;;;;;;;3.33;0.80;;;10.00;99.90;;;;;;5012663;28;20714;-66
2023/10/31 02:37:35;;;;;;;0.60;0.60;;;10.00;99.90;;;;;;5012394;28;20591;-66
2023/10/31 02:40:01;;;;;;;1.37;0.87;;;10.00;99.90;;;;;;5012602;28;20500;-66
2023/10/31 02:42:27;;;;;;;3.17;0.70;;;10.00;99.90;;;;;;5012536;28;20262;-66
2023/10/31 02:44:53;;;;;;;1.07;0.97;;;10.00;99.90;;;;;;5012256;28;20167;-66
2023/10/31 02:47:18;;;;;;;2.00;0.93;;;10.00;99.90;;;;;;5012385;28;20432;-66
2023/10/31 02:49:44;;;;;;;0.90;0.80;;;10.00;99.90;;;;;;5012321;28;20517;-66
2023/10/31 02:52:09;;;;;;;0.80;0.80;;;10.10;99.90;;;;;;5011913;28;20171;-66
2023/10/31 02:54:36;;;;;;;0.80;0.80;;;10.10;99.90;;;;;;5012065;28;20171;-66
2023/10/31 02:57:02;;;;;;;1.10;0.70;;;10.10;99.90;;;;;;5012232;28;20248;-66
2023/10/31 02:59:27;;;;;;;1.53;1.00;;;10.10;99.90;;;;;;5012350;28;20903;-66
2023/10/31 03:01:53;;;;;;;0.83;0.83;;;10.10;99.90;;;;;;5012254;28;20429;-66
2023/10/31 03:04:19;;;;;;;0.83;0.83;;;10.20;99.90;;;;;;5011891;28;20186;-66
2023/10/31 03:06:44;;;;;;;1.30;0.63;;;10.20;99.90;;;;;;5012168;28;20425;-66
2023/10/31 03:09:10;;;;;;;3.10;1.00;;;10.20;99.90;;;;;;5012207;28;20569;-66
2023/10/31 03:11:35;;;;;;;1.60;1.40;;;10.10;99.90;;;;;;5012164;28;20194;-66
2023/10/31 03:14:01;;;;;;;1.57;1.47;;;10.10;99.90;;;;;;5011889;28;20175;-66
2023/10/31 03:16:26;;;;;;;1.30;1.20;;;10.10;99.90;;;;;;5012155;28;20606;-66
2023/10/31 03:18:52;;;;;;;1.17;0.97;;;10.10;99.90;;;;;;5011972;28;20195;-66
2023/10/31 03:21:18;;;;;;;1.90;1.30;;;10.10;99.90;;;;;;5012035;28;20207;-66
2023/10/31 03:23:48;;;;;;;5.70;2.30;;;10.00;99.90;;;;;;5011893;28;20604;-66
2023/10/31 03:26:14;;;;;;;4.40;1.80;;;10.00;99.90;;;;;;5012077;28;20175;-66
2023/10/31 03:28:39;;;;;;;0.93;0.93;;;10.00;99.90;;;;;;5011912;28;20473;-66
2023/10/31 03:31:05;;;;;;;1.40;1.20;;;10.10;99.90;;;;;;5012073;28;20233;-66
2023/10/31 03:33:30;;;;;;;1.80;1.20;;;10.10;99.90;;;;;;5011739;28;20205;-66
2023/10/31 03:35:56;;;;;;;1.40;1.23;;;10.00;99.90;;;;;;5011897;28;20207;-66
2023/10/31 03:38:21;;;;;;;3.47;1.30;;;10.00;99.90;;;;;;5011926;28;20191;-66
2023/10/31 03:40:47;;;;;;;2.80;1.60;;;10.00;99.90;;;;;;5011953;28;20245;-66
2023/10/31 03:43:13;;;;;;;2.30;1.57;;;10.00;99.90;;;;;;5011630;28;20178;-66
2023/10/31 03:45:38;;;;;;;2.40;1.07;;;10.00;99.90;;;;;;5011875;28;20171;-66
2023/10/31 03:48:04;;;;;;;2.23;1.33;;;10.00;99.90;;;;;;5011790;28;20203;-66
2023/10/31 03:50:29;;;;;;;3.10;1.67;;;10.00;99.90;;;;;;5011779;28;20205;-66
2023/10/31 03:52:55;;;;;;;1.67;1.57;;;10.00;99.90;;;;;;5011492;28;20641;-66
2023/10/31 03:55:20;;;;;;;2.23;1.30;;;10.00;99.90;;;;;;5011853;28;20237;-66
2023/10/31 03:57:46;;;;;;;6.20;4.57;;;10.00;99.90;;;;;;5011707;28;20282;-66
2023/10/31 04:00:12;;;;;;;2.50;2.20;;;9.90;99.90;;;;;;5011878;28;20229;-66
2023/10/31 04:02:40;;;;;;;1.23;1.13;;;10.00;99.90;;;;;;5011355;28;20166;-66
2023/10/31 04:05:06;;;;;;;1.20;1.10;;;10.00;99.90;;;;;;5013716;28;20440;-66
2023/10/31 04:07:32;;;;;;;1.20;1.10;;;9.90;99.90;;;;;;5015320;28;20576;-66
2023/10/31 04:09:57;;;;;;;1.80;1.17;;;9.90;99.90;;;;;;5015465;28;20448;-66
2023/10/31 04:12:23;;;;;;;2.00;1.50;;;9.80;99.90;;;;;;5015181;28;20187;-66
2023/10/31 04:14:48;;;;;;;3.00;2.00;;;9.80;99.90;;;;;;5014989;28;20190;-66
2023/10/31 04:17:14;;;;;;;3.23;1.17;;;9.90;99.90;;;;;;5014960;28;20206;-66
2023/10/31 04:19:39;;;;;;;2.30;1.10;;;9.90;99.90;;;;;;5014972;28;20175;-66
2023/10/31 04:22:05;;;;;;;1.10;1.00;;;9.90;99.90;;;;;;5015251;28;20163;-66
2023/10/31 04:24:31;;;;;;;1.20;1.10;;;9.90;99.90;;;;;;5014719;28;20166;-66
2023/10/31 04:26:56;;;;;;;2.10;1.30;;;9.90;99.90;;;;;;5014977;28;20179;-66
2023/10/31 04:29:22;;;;;;;1.63;1.23;;;10.00;99.90;;;;;;5014835;28;20203;-66
2023/10/31 04:31:48;;;;;;;1.63;1.00;;;10.00;99.90;;;;;;5014909;28;20244;-66
2023/10/31 04:34:13;;;;;;;2.80;1.10;;;9.90;99.90;;;;;;5014550;28;20175;-66
2023/10/31 04:36:39;;;;;;;1.50;1.07;;;9.90;99.90;;;;;;5014870;28;20206;-66
2023/10/31 04:39:05;;;;;;;2.30;1.00;;;9.80;99.90;;;;;;5014838;28;20197;-66
2023/10/31 04:41:31;;;;;;;2.07;0.80;;;9.80;99.90;;;;;;5014712;28;20939;-66
2023/10/31 04:43:56;;;;;;;1.77;0.90;;;9.70;99.90;;;;;;5014417;28;20414;-66
2023/10/31 04:46:22;;;;;;;1.53;0.90;;;9.70;99.90;;;;;;5014446;28;20189;-66
2023/10/31 04:48:48;;;;;;;1.33;0.80;;;9.70;99.90;;;;;;5014470;28;20618;-66
2023/10/31 04:51:14;;;;;;;0.93;0.90;;;9.70;99.90;;;;;;5014515;28;20183;-66
2023/10/31 04:53:39;;;;;;;1.83;1.73;;;9.70;99.90;;;;;;5014138;28;20484;-66
2023/10/31 04:56:11;;;;;;;0.80;0.73;;;9.60;99.90;;;;;;5014372;28;20645;-66
2023/10/31 04:58:37;;;;;;;3.73;1.43;;;9.60;99.90;;;;;;5014284;28;20198;-66
2023/10/31 05:01:02;;;;;;;2.03;1.00;;;9.60;99.90;;;;;;5014257;28;20405;-66
2023/10/31 05:03:28;;;;;;;1.30;1.10;;;9.60;99.90;;;;;;5013931;28;20990;-66
2023/10/31 05:05:54;;;;;;;3.47;1.10;;;9.60;99.90;;;;;;5014295;28;20166;-66
2023/10/31 05:08:19;;;;;;;2.07;1.00;;;9.60;99.90;;;;;;5014132;28;20585;-66
2023/10/31 05:10:47;;;;;;;1.50;1.40;;;9.60;99.90;;;;;;5014172;28;20206;-66
2023/10/31 05:13:12;;;;;;;1.10;1.00;;;9.60;99.90;;;;;;5013892;28;20250;-66
2023/10/31 05:15:38;;;;;;;0.80;0.67;;;9.60;99.90;;;;;;5013744;28;20525;-66
2023/10/31 05:18:03;;;;;;;1.03;0.90;;;9.50;99.90;;;;;;5013838;28;20248;-66
2023/10/31 05:20:29;;;;;;;1.10;0.80;;;9.50;99.90;;;;;;5013977;28;20171;-66
2023/10/31 05:22:54;;;;;;;1.33;1.20;;;9.50;99.90;;;;;;5013596;28;20180;-66
2023/10/31 05:25:20;;;;;;;1.07;0.83;;;9.50;99.90;;;;;;5013908;28;20171;-66
2023/10/31 05:27:46;;;;;;;3.83;0.97;;;9.40;99.90;;;;;;5014244;28;20586;-66
2023/10/31 05:30:14;;;;;;;1.10;1.00;;;9.40;99.90;;;;;;5013762;28;20202;-66
2023/10/31 05:32:39;;;;;;;1.07;1.00;;;9.40;99.90;;;;;;5013333;28;20189;-66
2023/10/31 05:35:05;;;;;;;1.07;0.97;;;9.40;99.90;;;;;;5013673;28;20509;-66
2023/10/31 05:37:30;;;;;;;1.67;1.30;;;9.40;99.90;;;;;;5013487;28;20211;-66
2023/10/31 05:39:56;;;;;;;1.70;0.80;;;9.40;99.90;;;;;;5013648;28;20290;-66
2023/10/31 05:42:23;;;;;;;1.63;1.10;;;9.30;99.90;;;;;;5013496;28;20174;-66
2023/10/31 05:44:48;;;;;;;0.73;0.73;;;9.30;99.90;;;;;;5013246;28;20206;-66
2023/10/31 05:47:14;;;;;;;2.00;0.90;;;9.30;99.90;;;;;;5013291;28;20903;-66
2023/10/31 05:49:42;;;;;;;1.00;0.80;;;9.20;99.90;;;;;;5013370;28;20170;-66
2023/10/31 05:52:07;;;;;;;1.43;1.03;;;9.30;99.90;;;;;;5013321;28;20179;-66
2023/10/31 05:54:33;;;;;;;3.60;1.00;;;9.20;99.90;;;;;;5013060;28;20422;-66
2023/10/31 05:56:58;;;;;;;2.57;1.30;;;9.20;99.90;;;;;;5013237;28;20225;-66
2023/10/31 05:59:25;;;;;;;1.17;1.00;;;9.20;99.90;;;;;;5013160;28;20203;-66
2023/10/31 06:01:50;;;;;;;1.07;0.80;;;9.20;99.90;;;;;;5013114;28;20171;-66
2023/10/31 06:04:16;;;;;;;0.77;0.77;;;9.20;99.90;;;;;;5012929;28;20420;-66
2023/10/31 06:06:41;;;;;;;3.53;1.63;;;9.20;99.90;;;;;;5013086;28;20179;-66
2023/10/31 06:09:07;;;;;;;1.70;0.80;;;9.20;99.90;;;;;;5013078;28;20209;-66
2023/10/31 06:11:32;;;;;;;0.73;0.73;;;9.20;99.90;;;;;;5013075;28;20589;-66
2023/10/31 06:13:59;;;;;;;0.90;0.90;;;9.20;99.90;;;;;;5012697;28;20175;-66
2023/10/31 06:16:25;;;;;;;0.60;0.60;;;9.20;99.90;;;;;;5012867;28;20198;-66
2023/10/31 06:18:50;;;;;;;1.33;1.20;;;9.20;99.90;;;;;;5012942;28;20437;-66
2023/10/31 06:21:16;;;;;;;2.10;1.10;;;9.20;99.90;;;;;;5012942;28;20171;-66
2023/10/31 06:23:44;;;;;;;1.77;1.00;;;9.20;99.90;;;;;;5012524;28;20171;-66
2023/10/31 06:26:09;;;;;;;0.97;0.97;;;9.30;99.90;;;;;;5012800;28;20540;-65
2023/10/31 06:28:36;;;;;;;1.90;1.13;;;9.20;99.90;;;;;;5011954;28;20453;-66
2023/10/31 06:31:02;;;;;;;2.40;1.20;;;9.20;99.90;;;;;;5012696;28;20173;-66
2023/10/31 06:33:28;;;;;;;7.47;4.30;;;9.20;99.90;;;;;;5012275;28;20425;-66
2023/10/31 06:35:53;;;;;;;1.30;1.20;;;9.20;99.90;;;;;;5012606;28;20167;-66
2023/10/31 06:38:19;;;;;;;1.57;1.17;;;9.20;99.90;;;;;;5012483;28;20202;-66
2023/10/31 06:40:45;;;;;;;5.53;3.17;;;9.20;99.90;;;;;;5012609;28;20199;-66
2023/10/31 06:43:11;;;;;;;2.30;1.37;;;9.20;99.90;;;;;;5012193;28;20171;-66
2023/10/31 06:45:36;;;;;;;2.43;1.60;;;9.20;99.90;;;;;;5012405;28;20209;-66
2023/10/31 06:48:02;;;;;;;4.60;1.03;;;9.20;99.90;;;;;;4994544;28;20203;-66
2023/10/31 06:50:28;;;;;;;1.10;0.80;;;9.20;99.90;;;;;;4992905;28;20223;-66
2023/10/31 06:52:54;;;;;;;1.00;0.90;;;9.20;99.90;;;;;;4992516;28;20456;-66
2023/10/31 06:55:19;;;;;;;2.27;0.93;;;9.30;99.90;;;;;;4992788;28;20485;-66
2023/10/31 06:57:45;;;;;;;1.93;1.70;;;9.30;99.90;;;;;;4992540;28;20207;-66
2023/10/31 07:00:11;;;;;;;1.93;1.80;;;9.40;99.90;;;;;;4992660;28;20172;-66
2023/10/31 07:02:37;;;;;;;1.20;1.10;;;9.50;99.90;;;;;;4992399;28;20184;-66
2023/10/31 07:05:03;;;;;;;1.83;1.57;;;9.60;99.90;;;;;;4992763;28;20418;-66
2023/10/31 07:07:29;;;;;;;0.80;0.80;;;9.60;99.90;;;;;;4992590;28;20488;-71
2023/10/31 07:09:55;;;;;;;2.97;1.57;;;9.60;99.90;;;;;;4992663;28;20431;-72
2023/10/31 07:12:21;;;;;;;1.80;1.70;;;9.70;99.90;;;;;;4992505;28;20179;-71
2023/10/31 07:14:47;;;;;;;2.20;1.07;;;9.70;99.90;;;;;;4992236;28;20179;-67
2023/10/31 07:17:12;;;;;;;1.33;1.20;;;9.80;99.90;;;;;;5000491;28;20877;-67
2023/10/31 07:19:37;;;;;;;1.23;1.13;;;9.70;99.90;;;;;;4993261;28;20187;-67
2023/10/31 07:22:03;;;;;;;1.00;1.00;;;9.70;99.90;;;;;;4992486;28;20175;-67
2023/10/31 07:24:29;;;;;;;2.60;1.20;;;9.70;99.90;;;;;;4992091;28;20175;-67
2023/10/31 07:26:55;;;;;;;1.90;1.00;;;9.70;99.90;;;;;;4992416;28;20202;-67
2023/10/31 07:29:20;;;;;;;0.90;0.90;;;9.70;99.90;;;;;;4992226;28;20681;-67
2023/10/31 07:31:46;;;;;;;1.23;1.00;;;9.80;99.90;;;;;;4992441;28;20976;-67
2023/10/31 07:34:12;;;;;;;5.63;1.20;;;9.80;99.90;;;;;;4992127;28;20179;-67
2023/10/31 07:36:39;;;;;;;3.50;1.20;;;9.80;99.90;;;;;;4992314;28;20210;-67
2023/10/31 07:39:04;;;;;;;1.83;1.10;;;9.90;99.90;;;;;;4994321;28;20199;-67
2023/10/31 07:41:30;;;;;;;2.03;0.70;;;10.00;99.90;;;;;;4996230;28;20414;-67
2023/10/31 07:43:55;;;;;;;1.23;1.13;;;10.00;99.90;;;;;;4995744;28;20176;-67
2023/10/31 07:46:21;;;;;;;1.20;1.10;;;10.10;99.90;;;;;;4996143;28;20259;-68
2023/10/31 07:48:47;;;;;;;1.30;1.20;;;10.20;99.90;;;;;;4995978;28;20199;-67
2023/10/31 07:51:12;;;;;;;3.30;1.17;;;10.20;99.90;;;;;;4995960;28;20190;-67
2023/10/31 07:53:38;;;;;;;1.67;1.20;;;10.20;99.90;;;;;;4995741;28;20221;-67
2023/10/31 07:56:03;;;;;;;1.90;1.03;;;10.30;99.90;;;;;;4995845;28;20187;-67
2023/10/31 07:58:29;;;;;;;4.60;2.03;;;10.30;99.90;;;;;;4995720;28;20203;-67
2023/10/31 08:00:54;;;;;;;1.27;1.17;;;10.40;99.90;;;;;;4995784;28;20172;-67
2023/10/31 08:03:20;;;;;;;5.07;1.10;;;10.50;99.90;;;;;;4995479;28;20649;-67
2023/10/31 08:05:45;;;;;;;3.83;0.90;;;10.60;99.90;;;;;;4995698;28;20218;-67
2023/10/31 08:08:11;;;;;;;1.90;1.00;;;10.70;99.90;;;;;;4995669;28;20220;-67
2023/10/31 08:10:36;;;;;;;1.90;1.17;;;10.80;99.90;;;;;;4995657;28;20704;-67
2023/10/31 08:13:02;;;;;;;2.23;1.57;;;10.90;99.90;;;;;;4995138;28;20177;-67
2023/10/31 08:15:27;;;;;;;2.13;1.40;;;11.10;99.90;;;;;;4995573;28;20179;-68
2023/10/31 08:17:53;;;;;;;3.00;1.50;;;11.30;99.90;;;;;;4994893;28;20681;-68
2023/10/31 08:20:18;;;;;;;3.60;0.93;;;11.60;99.90;;;;;;4995388;28;20214;-68
2023/10/31 08:22:45;;;;;;;4.33;1.60;;;11.80;99.90;;;;;;4994845;28;20283;-68
2023/10/31 08:25:11;;;;;;;1.20;1.10;;;11.90;99.90;;;;;;4995351;28;20174;-68
2023/10/31 08:27:37;;;;;;;1.60;1.20;;;12.10;99.90;;;;;;4994940;28;20501;-68
2023/10/31 08:30:02;;;;;;;1.33;0.97;;;12.30;99.90;;;;;;4995208;28;21004;-68
2023/10/31 08:32:29;;;;;;;1.43;1.13;;;12.40;99.90;;;;;;5006513;28;20205;-68
2023/10/31 08:34:56;;;;;;;1.20;1.10;;;12.50;99.90;;;;;;5014602;28;20418;-68
2023/10/31 08:37:21;;;;;;;2.90;1.40;;;12.60;99.90;;;;;;5014652;28;20245;-68
2023/10/31 08:39:47;;;;;;;2.60;1.10;;;12.80;99.90;;;;;;5014711;28;20441;-68
2023/10/31 08:42:12;;;;;;;1.83;1.40;;;12.70;99.90;;;;;;5014600;28;20171;-68
2023/10/31 08:44:40;;;;;;;2.07;1.10;;;12.60;99.90;;;;;;5014508;28;20193;-68
2023/10/31 08:47:06;;;;;;;2.37;1.83;;;12.70;99.90;;;;;;5014664;28;20198;-68
2023/10/31 08:49:31;;;;;;;3.00;2.67;;;12.70;99.90;;;;;;5014256;28;20502;-68
2023/10/31 08:51:57;;;;;;;5.90;0.97;;;12.70;99.90;;;;;;5014192;28;20441;-68
2023/10/31 08:54:22;;;;;;;2.77;1.20;;;12.80;99.90;;;;;;5014218;28;20177;-68
2023/10/31 08:56:48;;;;;;;1.67;1.20;;;13.10;99.90;;;;;;5014250;28;20198;-68
2023/10/31 08:59:13;;;;;;;2.77;1.50;;;13.30;99.90;;;;;;5014143;28;20195;-67
2023/10/31 09:01:40;;;;;;;2.20;1.90;;;13.60;99.90;;;;;;5013118;28;20171;-68
2023/10/31 09:04:09;;;;;;;2.43;1.30;;;14.00;99.90;;;;;;5017888;28;20175;-68
2023/10/31 09:06:39;;;;;;;1.90;1.43;;;14.40;99.90;;;;;;5033397;28;20425;-68
2023/10/31 09:09:06;;;;;;;3.13;0.90;;;14.80;99.90;;;;;;5033708;28;20483;-68
2023/10/31 09:11:32;;;;;;;2.50;1.07;;;15.10;99.90;;;;;;5033845;28;20421;-68
2023/10/31 09:13:57;;;;;;;1.03;0.90;;;14.90;99.90;;;;;;5033642;28;20427;-67
2023/10/31 09:16:26;;;;;;;1.93;1.83;;;14.70;99.90;;;;;;5032304;28;20178;-67
2023/10/31 09:18:52;;;;;;;1.67;1.20;;;14.40;99.90;;;;;;5007642;28;20194;-67
2023/10/31 09:21:18;;;;;;;3.50;1.30;;;14.80;99.90;;;;;;4994224;28;20415;-67
2023/10/31 09:23:44;;;;;;;3.20;1.57;;;15.40;99.90;;;;;;4995122;28;20454;-68
2023/10/31 09:26:09;;;;;;;1.20;1.10;;;16.20;99.90;;;;;;4994004;28;20877;-70
2023/10/31 09:28:39;;;;;;;2.23;1.60;;;16.30;99.90;;;;;;4993978;28;20200;-68
2023/10/31 09:31:05;;;;;;;1.40;1.30;;;15.90;99.90;;;;;;4994294;28;20176;-67
2023/10/31 09:33:32;;;;;;;3.40;1.57;;;15.50;99.90;;;;;;4993796;28;20417;-67
2023/10/31 09:35:57;;;;;;;1.87;1.53;;;15.10;99.90;;;;;;4993988;28;20175;-68
2023/10/31 09:38:23;;;;;;;1.87;1.40;;;15.00;99.90;;;;;;4992479;28;20463;-67
2023/10/31 09:40:52;;;;;;;4.17;1.60;;;15.00;99.90;;;;;;4993806;28;20182;-68
2023/10/31 09:43:18;;;;;;;2.80;1.30;;;15.20;99.90;;;;;;4993511;28;20164;-68
2023/10/31 09:45:45;;;;;;;5.43;1.00;;;15.40;99.90;;;;;;4994357;28;20555;-69
2023/10/31 09:48:12;;;;;;;3.93;1.30;;;15.50;99.90;;;;;;4976412;28;20482;-68
2023/10/31 09:50:48;;;;;;;3.10;1.30;;;15.60;99.90;;;;;;4994024;28;20840;-68
2023/10/31 09:53:18;;;;;;;6.53;2.47;;;16.30;99.90;;;;;;4992207;28;20457;-68
2023/10/31 09:55:46;;;;;;;2.70;1.80;;;16.30;99.90;;;;;;5004864;28;20955;-68
2023/10/31 09:58:11;;;;;;;4.03;1.60;;;15.60;99.90;;;;;;5013109;28;20468;-67
2023/10/31 10:00:40;;;;;;;2.07;1.53;;;15.00;99.90;;;;;;5013076;28;20779;-67
2023/10/31 10:03:10;;;;;;;1.53;1.43;;;14.20;99.90;;;;;;5010639;28;20609;-67
2023/10/31 10:05:38;;;;;;;2.87;1.70;;;13.80;99.90;;;;;;5011693;28;20421;-67
2023/10/31 10:08:04;;;;;;;2.93;1.57;;;13.40;99.90;;;;;;5011812;28;20461;-68
2023/10/31 10:10:31;;;;;;;1.60;1.50;;;13.00;99.90;;;;;;5012789;28;20429;-68
2023/10/31 10:12:58;;;;;;;3.43;2.10;;;12.80;99.90;;;;;;5012676;28;20764;-68
2023/10/31 10:15:27;;;;;;;2.73;2.00;;;12.70;99.90;;;;;;5012846;28;20417;-68
2023/10/31 10:17:53;;;;;;;3.13;1.83;;;12.60;99.90;;;;;;5012470;28;20838;-68
2023/10/31 10:20:19;;;;;;;5.10;2.10;;;12.60;99.90;;;;;;5012752;28;20418;-68
2023/10/31 10:22:46;;;;;;;3.70;2.10;;;12.70;99.90;;;;;;5011082;28;20432;-68
2023/10/31 10:25:19;;;;;;;5.00;1.77;;;12.80;99.90;;;;;;5012488;28;20484;-68
2023/10/31 10:27:45;;;;;;;1.60;1.50;;;13.00;99.90;;;;;;5012468;28;20472;-68
2023/10/31 10:30:13;;;;;;;3.27;1.70;;;13.00;99.90;;;;;;5011953;28;20430;-67
2023/10/31 10:32:39;;;;;;;2.00;1.67;;;12.90;99.90;;;;;;5012119;28;21311;-67
2023/10/31 10:35:06;;;;;;;4.10;1.70;;;13.00;99.90;;;;;;5012426;28;20414;-67
2023/10/31 10:37:33;;;;;;;2.97;1.97;;;13.10;99.90;;;;;;4994901;28;20566;-67
2023/10/31 10:40:00;;;;;;;4.47;1.60;;;13.00;99.90;;;;;;5012368;28;20418;-67
2023/10/31 10:42:36;;;;;;;2.20;1.87;;;13.10;99.90;;;;;;4987228;28;20873;-67
2023/10/31 10:45:04;;;;;;;9.53;2.00;;;13.20;99.90;;;;;;4992744;28;20461;-67
2023/10/31 10:47:34;;;;;;;2.23;1.40;;;13.20;99.90;;;;;;4992829;28;20446;-67
2023/10/31 10:50:01;;;;;;;3.70;1.53;;;13.20;99.90;;;;;;4992555;28;20505;-67
2023/10/31 10:52:48;;;;;;;5.03;1.60;;;13.00;99.90;;;;;;5005856;28;20444;-67
2023/10/31 10:55:24;;;;;;;2.00;1.43;;;12.80;99.90;;;;;;5011789;28;20434;-67
2023/10/31 10:58:13;;;;;;;3.20;1.77;;;12.60;99.90;;;;;;5012195;28;21011;-67
2023/10/31 11:00:40;;;;;;;2.50;2.30;;;12.40;99.90;;;;;;4993300;28;20494;-67
2023/10/31 11:03:06;;;;;;;6.10;2.70;;;12.40;99.90;;;;;;4992276;28;20441;-67
2023/10/31 11:05:32;;;;;;;3.67;1.90;;;12.40;99.90;;;;;;5010729;28;20430;-67
2023/10/31 11:07:58;;;;;;;2.00;1.47;;;12.60;99.90;;;;;;5011928;28;20528;-67
2023/10/31 11:10:25;;;;;;;2.77;1.40;;;12.70;99.90;;;;;;5000675;28;20180;-67
2023/10/31 11:12:50;;;;;;;4.50;1.70;;;12.80;99.90;;;;;;4992439;28;20430;-67
2023/10/31 11:15:18;;;;;;;1.90;1.47;;;12.90;99.90;;;;;;5002291;28;20429;-65
2023/10/31 11:17:45;;;;;;;5.40;2.60;;;12.90;99.90;;;;;;5015695;28;20207;-64
2023/10/31 11:20:15;;;;;;;1.57;1.40;;;12.90;99.90;;;;;;5016202;28;20421;-66
2023/10/31 11:22:44;;;;;;;5.00;1.73;;;13.00;99.90;;;;;;5015679;28;20413;-66
2023/10/31 11:25:20;;;;;;;3.80;1.67;;;13.30;99.90;;;;;;5016052;28;20418;-66
2023/10/31 11:27:45;;;;;;;2.40;1.40;;;13.50;99.90;;;;;;5016384;28;20457;-67
2023/10/31 11:30:34;;;;;;;2.67;1.60;;;13.60;99.90;;;;;;5015727;28;20445;-67
2023/10/31 11:33:01;;;;;;;1.63;1.20;;;13.80;99.90;;;;;;5015338;28;20171;-68
2023/10/31 11:35:29;;;;;;;3.80;1.40;;;14.30;99.90;;;;;;5016963;28;20520;-67
2023/10/31 11:38:06;;;;;;;1.37;1.20;;;15.00;99.90;;;;;;5009876;28;20464;-67
2023/10/31 11:40:32;;;;;;;2.13;1.60;;;15.60;99.90;;;;;;4995596;28;20421;-67
2023/10/31 11:43:01;;;;;;;1.40;1.30;;;15.70;99.90;;;;;;4996114;28;20445;-67
2023/10/31 11:45:36;;;;;;;1.30;1.20;;;15.50;99.90;;;;;;4996203;28;20179;-67
2023/10/31 11:48:04;;;;;;;1.57;1.27;;;15.20;99.90;;;;;;4996080;28;20481;-67
2023/10/31 11:50:30;;;;;;;1.37;1.07;;;15.20;99.90;;;;;;4995921;28;20510;-67
2023/10/31 11:53:00;;;;;;;1.63;1.20;;;15.10;99.90;;;;;;4995647;28;20505;-67
2023/10/31 11:55:25;;;;;;;2.87;1.30;;;14.70;99.90;;;;;;4995920;28;20422;-67
2023/10/31 11:57:51;;;;;;;2.50;1.30;;;14.50;99.90;;;;;;4995207;28;20474;-67
2023/10/31 12:00:23;;;;;;;2.30;1.30;;;14.30;99.90;;;;;;5015393;28;20173;-66
2023/10/31 12:02:59;;;;;;;1.17;1.00;;;14.10;99.90;;;;;;4994871;28;20187;-67
2023/10/31 12:05:25;;;;;;;2.40;1.37;;;13.90;99.90;;;;;;5029029;28;20421;-67
2023/10/31 12:07:50;;;;;;;2.90;1.20;;;13.70;99.90;;;;;;5015102;28;20495;-66
2023/10/31 12:10:26;;;;;;;3.70;1.87;;;13.60;99.90;;;;;;5015219;28;20179;-67
2023/10/31 12:12:53;;;;;;;1.00;1.00;;;13.60;99.90;;;;;;5015033;28;20174;-66
2023/10/31 12:15:18;;;;;;;1.33;1.00;;;13.60;99.90;;;;;;5014528;28;20413;-67
2023/10/31 12:17:44;;;;;;;1.20;1.10;;;13.60;99.90;;;;;;5014975;28;20469;-67
2023/10/31 12:20:10;;;;;;;0.90;0.87;;;13.60;99.90;;;;;;5015067;28;20171;-67
2023/10/31 12:22:36;;;;;;;4.43;1.13;;;13.50;99.90;;;;;;5014693;28;20226;-67
2023/10/31 12:25:02;;;;;;;1.47;0.77;;;13.70;99.90;;;;;;5013881;28;20421;-67
2023/10/31 12:27:45;;;;;;;1.30;1.10;;;14.10;99.90;;;;;;5013438;28;20202;-67
2023/10/31 12:30:12;;;;;;;2.03;1.30;;;14.30;99.90;;;;;;5014881;28;20866;-67
2023/10/31 12:32:40;;;;;;;3.30;1.67;;;14.50;99.90;;;;;;5014547;28;20421;-67
2023/10/31 12:35:06;;;;;;;3.30;1.00;;;14.60;99.90;;;;;;5014828;28;20517;-67
2023/10/31 12:37:33;;;;;;;2.00;1.10;;;14.50;99.90;;;;;;5014550;28;20556;-67
2023/10/31 12:40:02;;;;;;;2.17;1.10;;;14.50;99.90;;;;;;5014734;28;21053;-67
2023/10/31 12:42:30;;;;;;;2.20;1.40;;;14.50;99.90;;;;;;5014468;28;20414;-67
2023/10/31 12:44:56;;;;;;;1.20;1.10;;;14.00;99.90;;;;;;5014378;28;20985;-66
2023/10/31 12:47:22;;;;;;;2.00;1.23;;;13.60;99.90;;;;;;5014491;28;20994;-66